Time;durP1;ratioP1;P1;durP2;ratioP2;P2;SDS_P1;SDS_P2;PMS_P1;PMS_P2;Temp;Humidity;BMP_temperature;BMP_pressure;BME280_temperature;BME280_humidity;BME280_pressure;Samples;Min_cycle;Max_cycle;Signal;HPM_P1;HPM_P2
2022/08/12 00:43:13;;;;;;;3.03;2.47;;;26.80;38.80;;;;;;6140411;23;20407;-83
2022/08/12 00:48:40;;;;;;;3.00;2.33;;;26.80;38.80;;;;;;6140562;23;20362;-84
2022/08/12 00:51:10;;;;;;;2.67;2.47;;;26.80;38.80;;;;;;6116557;23;20388;-84
2022/08/12 00:53:46;;;;;;;2.70;2.50;;;26.80;38.80;;;;;;6139537;23;20397;-84
2022/08/12 00:56:25;;;;;;;2.77;2.40;;;26.80;38.80;;;;;;6139429;23;20482;-84
2022/08/12 00:58:57;;;;;;;1.87;1.77;;;26.90;38.80;;;;;;6139596;23;20384;-84
2022/08/12 01:01:25;;;;;;;2.57;2.37;;;26.90;38.80;;;;;;6140860;23;20409;-83
2022/08/12 01:12:28;;;;;;;2.70;2.50;;;26.80;38.80;;;;;;6140472;23;20405;-84
2022/08/12 01:15:08;;;;;;;2.20;2.00;;;26.90;38.90;;;;;;6139673;23;20385;-83
2022/08/12 01:17:48;;;;;;;3.00;2.80;;;26.80;38.80;;;;;;6138219;23;20425;-83
2022/08/12 01:20:34;;;;;;;2.83;2.63;;;26.80;38.90;;;;;;6139164;23;20684;-84
2022/08/12 01:23:31;;;;;;;2.57;2.37;;;26.80;38.90;;;;;;6140652;23;20358;-83
2022/08/12 01:26:12;;;;;;;2.60;2.40;;;26.80;38.90;;;;;;6139640;23;20364;-84
2022/08/12 01:28:54;;;;;;;3.00;2.70;;;26.80;38.90;;;;;;6138559;23;20419;-84
2022/08/12 01:31:28;;;;;;;2.40;2.20;;;26.80;38.90;;;;;;6139408;23;20403;-83
2022/08/12 01:34:20;;;;;;;2.50;2.30;;;26.80;38.90;;;;;;6139093;23;20381;-84
2022/08/12 01:36:56;;;;;;;2.73;2.53;;;26.80;38.90;;;;;;6138150;23;20507;-83
2022/08/12 01:39:46;;;;;;;2.80;2.60;;;26.80;38.90;;;;;;6138971;23;20369;-84
2022/08/12 01:42:19;;;;;;;3.03;2.40;;;26.80;38.90;;;;;;6139738;23;20377;-83
2022/08/12 01:44:52;;;;;;;3.20;2.60;;;26.80;39.00;;;;;;6138645;23;20380;-84
2022/08/12 01:47:38;;;;;;;2.37;2.17;;;26.80;39.00;;;;;;6140476;23;20377;-83
2022/08/12 01:50:31;;;;;;;2.60;2.40;;;26.80;39.00;;;;;;6139246;23;20384;-84
2022/08/12 01:53:19;;;;;;;3.13;2.83;;;26.70;38.90;;;;;;6140008;23;20459;-84
2022/08/12 01:55:55;;;;;;;3.83;2.17;;;26.70;38.90;;;;;;6139256;23;20443;-84
2022/08/12 02:01:33;;;;;;;2.50;2.30;;;26.70;39.00;;;;;;6140467;23;20423;-84
2022/08/12 02:14:05;;;;;;;2.57;2.37;;;26.70;39.00;;;;;;6144090;23;20422;-86
2022/08/12 02:16:57;;;;;;;3.13;2.83;;;26.70;39.00;;;;;;6121343;23;20425;-86
2022/08/12 02:20:05;;;;;;;2.70;2.50;;;26.70;39.10;;;;;;6141118;23;20396;-86
2022/08/12 02:22:56;;;;;;;3.17;2.87;;;26.70;39.10;;;;;;6141691;23;20428;-86
2022/08/12 02:25:38;;;;;;;2.60;2.40;;;26.70;39.10;;;;;;6141041;23;20408;-85
2022/08/12 02:28:13;;;;;;;2.47;2.27;;;26.70;39.10;;;;;;6142273;23;20683;-85
2022/08/12 02:30:42;;;;;;;2.23;2.03;;;26.70;39.10;;;;;;6143497;23;20376;-85
2022/08/12 02:33:12;;;;;;;2.50;2.30;;;26.70;39.10;;;;;;6142493;23;20531;-85
2022/08/12 02:35:43;;;;;;;2.60;2.40;;;26.70;39.00;;;;;;6142204;23;20373;-85
2022/08/12 02:38:17;;;;;;;2.87;2.67;;;26.70;39.00;;;;;;6142959;23;20757;-85
2022/08/12 02:40:47;;;;;;;2.30;2.10;;;26.70;39.10;;;;;;6142110;23;20401;-85
2022/08/12 02:44:02;;;;;;;;;;;;;;;;;;;;;
2022/08/12 02:46:49;;;;;;;2.73;2.53;;;26.70;39.00;;;;;;6147252;23;20353;-86
2022/08/12 02:49:38;;;;;;;2.87;2.57;;;26.70;39.10;;;;;;6123566;23;20488;-85
2022/08/12 02:52:41;;;;;;;;;;;;;;;;;;;;;
2022/08/12 02:55:18;;;;;;;2.70;2.50;;;26.60;38.90;;;;;;6148349;23;20360;-86
2022/08/12 03:04:50;;;;;;;2.63;2.43;;;26.60;39.00;;;;;;6087248;23;20399;-86
2022/08/12 03:07:30;;;;;;;2.70;2.40;;;26.60;39.10;;;;;;6063387;23;20446;-86
2022/08/12 03:10:08;;;;;;;3.00;2.80;;;26.60;39.00;;;;;;6087715;23;20387;-86
2022/08/12 03:12:39;;;;;;;2.30;2.10;;;26.60;39.00;;;;;;6087147;23;20410;-85
2022/08/12 03:15:11;;;;;;;2.60;2.40;;;26.60;39.00;;;;;;6083157;23;20410;-84
2022/08/12 03:17:56;;;;;;;3.10;2.80;;;26.60;39.00;;;;;;6083966;23;20437;-85
2022/08/12 03:20:29;;;;;;;2.63;2.43;;;26.60;39.00;;;;;;6084575;23;20411;-84
2022/08/12 03:23:01;;;;;;;3.57;3.27;;;26.60;39.00;;;;;;6060927;23;20390;-84
2022/08/12 03:25:37;;;;;;;2.97;2.67;;;26.60;39.00;;;;;;6060596;23;20379;-84
2022/08/12 03:28:48;;;;;;;2.70;2.50;;;26.60;39.00;;;;;;6038235;23;20394;-84
2022/08/12 03:31:03;;;;;;;3.50;2.50;;;26.60;39.00;;;;;;6121479;23;20378;-85
2022/08/12 03:33:37;;;;;;;2.67;2.47;;;26.60;39.00;;;;;;6143650;23;20380;-84
2022/08/12 03:36:10;;;;;;;2.50;2.27;;;26.60;39.00;;;;;;6143672;23;20381;-84
2022/08/12 03:38:41;;;;;;;2.70;2.50;;;26.60;38.90;;;;;;6144141;23;20434;-84
2022/08/12 03:41:35;;;;;;;3.43;2.83;;;26.60;39.00;;;;;;6143605;23;20379;-84
2022/08/12 04:02:09;;;;;;;2.90;2.50;;;26.50;39.00;;;;;;6144718;23;20356;-83
2022/08/12 04:04:45;;;;;;;3.20;2.90;;;26.50;39.00;;;;;;6141880;23;20376;-84
2022/08/12 04:07:33;;;;;;;;;;;;;;;;;;;;;
2022/08/12 04:10:11;;;;;;;2.30;2.10;;;26.50;39.00;;;;;;6143839;23;20411;-83
2022/08/12 04:15:24;;;;;;;2.60;2.40;;;26.50;39.00;;;;;;6144209;23;20380;-83
2022/08/12 04:17:54;;;;;;;2.73;2.27;;;26.50;39.00;;;;;;6143632;23;20432;-83
2022/08/12 04:20:27;;;;;;;2.60;2.40;;;26.50;38.90;;;;;;6142298;23;20408;-83
2022/08/12 04:23:03;;;;;;;2.73;2.53;;;26.50;39.00;;;;;;6144006;23;20373;-83
2022/08/12 04:25:34;;;;;;;3.50;2.60;;;26.50;39.00;;;;;;6138634;23;20384;-82
2022/08/12 04:28:06;;;;;;;3.30;2.60;;;26.50;38.90;;;;;;6141117;23;20377;-82
2022/08/12 04:30:34;;;;;;;2.90;2.67;;;26.50;38.90;;;;;;6139319;23;20381;-83
2022/08/12 04:33:11;;;;;;;2.57;2.37;;;26.50;38.90;;;;;;6138921;23;20408;-83
2022/08/12 04:35:40;;;;;;;2.70;2.50;;;26.50;38.90;;;;;;6138710;23;20388;-84
2022/08/12 04:38:07;;;;;;;2.53;2.33;;;26.50;39.00;;;;;;6139434;23;20945;-84
2022/08/12 04:40:44;;;;;;;3.27;2.97;;;26.50;38.90;;;;;;6139329;23;20380;-84
2022/08/12 04:43:20;;;;;;;3.47;2.53;;;26.50;38.90;;;;;;6139411;23;20381;-84
2022/08/12 04:45:48;;;;;;;3.00;2.70;;;26.50;38.90;;;;;;6140658;23;20353;-84
2022/08/12 04:48:15;;;;;;;4.03;2.73;;;26.50;38.90;;;;;;6139542;23;20412;-84
2022/08/12 04:50:47;;;;;;;3.20;2.90;;;26.50;38.90;;;;;;6139486;23;20385;-84
2022/08/12 04:53:17;;;;;;;2.83;2.43;;;26.50;38.90;;;;;;6143139;23;20365;-86
2022/08/12 04:55:51;;;;;;;3.63;3.00;;;26.40;38.80;;;;;;6143391;23;20373;-86
2022/08/12 04:58:20;;;;;;;2.90;2.67;;;26.40;39.50;;;;;;6144321;23;20425;-86
2022/08/12 05:00:55;;;;;;;2.67;2.37;;;26.50;38.90;;;;;;6144900;23;20381;-84
2022/08/12 05:03:40;;;;;;;3.00;2.80;;;26.50;38.90;;;;;;6141651;23;20376;-84
2022/08/12 05:06:37;;;;;;;2.57;2.20;;;26.40;38.80;;;;;;6143682;23;20464;-84
2022/08/12 05:09:31;;;;;;;3.27;2.97;;;26.50;38.90;;;;;;6141469;23;20787;-85
2022/08/12 05:12:00;;;;;;;2.43;2.23;;;26.40;38.90;;;;;;6141134;23;20452;-84
2022/08/12 05:14:26;;;;;;;3.03;2.70;;;26.40;38.90;;;;;;6141685;23;20385;-83
2022/08/12 05:16:55;;;;;;;3.13;2.47;;;26.40;38.90;;;;;;6141362;23;20436;-82
2022/08/12 05:19:43;;;;;;;2.63;2.43;;;26.40;38.80;;;;;;6138411;23;20377;-83
2022/08/12 05:28:59;;;;;;;2.70;2.50;;;26.40;38.80;;;;;;6139786;23;20934;-82
2022/08/12 05:31:28;;;;;;;2.60;2.40;;;26.40;38.80;;;;;;6139189;23;20425;-82
2022/08/12 05:34:02;;;;;;;2.63;2.43;;;26.40;38.80;;;;;;6139582;23;20389;-83
2022/08/12 05:36:28;;;;;;;3.73;3.43;;;26.40;38.80;;;;;;6136565;23;20380;-84
2022/08/12 05:39:05;;;;;;;3.23;2.20;;;26.40;38.80;;;;;;6140088;23;20381;-83
2022/08/12 05:41:36;;;;;;;2.90;2.70;;;26.40;38.80;;;;;;6138436;23;20431;-84
2022/08/12 05:44:15;;;;;;;2.43;2.23;;;26.40;38.80;;;;;;6139242;23;20830;-84
2022/08/12 05:46:57;;;;;;;2.80;2.57;;;26.40;38.80;;;;;;6139379;23;20505;-84
2022/08/12 05:52:24;;;;;;;;;;;;;;;;;;;;;
2022/08/12 05:55:07;;;;;;;2.67;2.47;;;26.40;38.80;;;;;;6140399;23;20400;-83
2022/08/12 05:57:56;;;;;;;3.53;2.27;;;26.40;38.80;;;;;;6143073;23;20488;-83
2022/08/12 06:03:38;;;;;;;2.63;2.07;;;26.50;38.80;;;;;;6063603;23;20375;-84
2022/08/12 06:06:37;;;;;;;;;;;;;;;;;;;;;
2022/08/12 06:09:25;;;;;;;2.63;2.43;;;26.40;38.80;;;;;;6082448;23;20386;-84
2022/08/12 06:18:44;;;;;;;2.27;2.00;;;26.40;38.80;;;;;;6083207;23;20426;-84
2022/08/12 06:21:53;;;;;;;2.80;2.43;;;26.40;38.90;;;;;;6061322;23;20473;-84
2022/08/12 06:24:40;;;;;;;2.77;2.57;;;26.40;38.90;;;;;;6061005;23;20393;-83
2022/08/12 06:27:17;;;;;;;2.87;2.27;;;26.40;38.90;;;;;;6084856;23;20398;-83
2022/08/12 06:36:29;;;;;;;2.30;2.10;;;26.40;38.90;;;;;;6084192;23;20362;-84
2022/08/12 06:39:25;;;;;;;2.57;2.37;;;26.40;38.90;;;;;;6098852;23;20392;-84
2022/08/12 06:49:35;;;;;;;2.50;2.30;;;26.40;38.90;;;;;;6085518;23;20512;-84
2022/08/12 06:55:40;;;;;;;2.20;2.00;;;26.40;39.00;;;;;;5999229;24;20480;-84
2022/08/12 07:02:21;;;;;;;2.47;2.27;;;26.40;39.00;;;;;;5882853;24;20396;-85
2022/08/12 07:05:13;;;;;;;2.60;2.30;;;26.40;39.10;;;;;;5976188;24;20384;-84
2022/08/12 07:07:46;;;;;;;2.33;2.13;;;26.40;39.00;;;;;;5998875;24;20406;-83
2022/08/12 07:14:33;;;;;;;3.10;2.10;;;26.50;39.10;;;;;;5997991;24;20377;-85
2022/08/12 07:17:09;;;;;;;2.87;2.10;;;26.40;39.00;;;;;;5888429;24;20429;-85
2022/08/12 07:19:53;;;;;;;2.67;2.00;;;26.40;39.10;;;;;;5889578;24;20408;-84
2022/08/12 07:22:31;;;;;;;2.67;2.30;;;26.50;39.10;;;;;;5915894;24;20425;-84
2022/08/12 07:31:17;;;;;;;2.63;2.00;;;26.50;39.10;;;;;;6023974;23;20834;-84
2022/08/12 07:47:39;;;;;;;2.00;1.80;;;26.50;39.20;;;;;;6026423;23;20388;-84
2022/08/12 07:57:31;;;;;;;2.17;1.97;;;26.50;39.20;;;;;;6084107;23;20436;-83
2022/08/12 08:00:11;;;;;;;2.57;2.20;;;26.50;39.20;;;;;;6050683;23;20437;-84
2022/08/12 08:02:58;;;;;;;;;;;;;;;;;;;;;
2022/08/12 08:12:53;;;;;;;2.37;1.90;;;26.60;39.20;;;;;;6076930;23;20378;-84
2022/08/12 08:15:33;;;;;;;3.20;2.47;;;26.50;39.20;;;;;;6083808;23;20385;-84
2022/08/12 08:32:15;;;;;;;2.40;2.20;;;26.60;39.20;;;;;;5999655;23;20353;-84
2022/08/12 08:45:12;;;;;;;2.30;2.10;;;26.60;39.30;;;;;;5970553;24;20385;-83
2022/08/12 09:19:30;;;;;;;1.67;1.57;;;26.60;39.20;;;;;;6024882;23;20461;-83
2022/08/12 09:29:46;;;;;;;;;;;;;;;;;;;;;
2022/08/12 09:39:13;;;;;;;;;;;;;;;;;;;;;
2022/08/12 09:52:54;;;;;;;1.60;1.50;;;26.70;39.10;;;;;;5945670;23;20363;-83
2022/08/12 09:56:31;;;;;;;1.77;1.67;;;26.70;39.10;;;;;;5864785;24;20408;-85
2022/08/12 10:43:41;;;;;;;1.87;1.60;;;26.70;39.00;;;;;;5755892;24;20401;-84
2022/08/12 10:43:44;;;;;;;2.30;2.10;;;26.70;39.10;;;;;;5755932;25;20386;-84
2022/08/12 10:46:34;;;;;;;1.60;1.50;;;26.80;39.10;;;;;;5761055;24;20393;-84
2022/08/12 10:50:08;;;;;;;;;;;;;;;;;;;;;
2022/08/12 11:07:56;;;;;;;1.87;1.67;;;26.80;39.10;;;;;;5681695;25;20379;-84
2022/08/12 11:11:01;;;;;;;1.77;1.67;;;26.80;39.00;;;;;;5742152;24;20393;-85
2022/08/12 11:38:57;;;;;;;;;;;;;;;;;;;;;
2022/08/12 11:42:10;;;;;;;1.30;1.17;;;26.80;39.00;;;;;;5783921;24;20424;-83
2022/08/12 11:51:42;;;;;;;1.87;1.60;;;26.80;39.00;;;;;;5782917;24;20519;-83
2022/08/12 11:54:23;;;;;;;2.03;1.10;;;26.80;39.00;;;;;;5730231;25;20406;-83
2022/08/12 11:57:06;;;;;;;1.50;1.33;;;26.80;39.00;;;;;;5730719;25;20430;-84
2022/08/12 12:00:11;;;;;;;1.53;1.40;;;26.90;39.00;;;;;;5753638;24;20403;-85
2022/08/12 12:06:19;;;;;;;1.50;1.30;;;26.90;38.90;;;;;;5808345;24;20457;-85
2022/08/12 12:08:52;;;;;;;1.53;1.43;;;26.90;39.00;;;;;;5901123;24;20679;-85
2022/08/12 12:11:42;;;;;;;1.40;1.30;;;26.90;38.90;;;;;;5915867;24;20412;-85
2022/08/12 12:14:58;;;;;;;;;;;;;;;;;;;;;
2022/08/12 12:18:19;;;;;;;1.33;1.20;;;26.90;38.90;;;;;;6025745;23;20448;-85
2022/08/12 12:30:57;;;;;;;1.30;1.20;;;26.90;39.40;;;;;;6142653;23;20368;-84
2022/08/12 12:33:46;;;;;;;2.33;1.00;;;26.90;38.90;;;;;;6139100;23;20387;-84
2022/08/12 12:36:33;;;;;;;2.37;1.20;;;26.90;38.80;;;;;;6142460;23;20413;-83
2022/08/12 12:42:50;;;;;;;1.80;1.37;;;26.90;38.80;;;;;;6127729;23;20404;-83
2022/08/12 12:45:24;;;;;;;1.20;1.10;;;26.90;38.70;;;;;;6141871;23;20457;-83
2022/08/12 12:48:47;;;;;;;;;;;;;;;;;;;;;
2022/08/12 12:55:05;;;;;;;1.40;1.27;;;26.90;38.80;;;;;;6144166;23;20406;-84
2022/08/12 12:58:03;;;;;;;1.20;1.10;;;26.90;38.70;;;;;;6143228;23;20492;-84
2022/08/12 13:04:11;;;;;;;;;;;;;;;;;;;;;
2022/08/12 13:06:50;;;;;;;1.30;1.00;;;26.90;38.70;;;;;;6145119;23;20388;-85
2022/08/12 13:22:25;;;;;;;1.00;0.90;;;26.90;38.70;;;;;;6085009;23;20394;-84
2022/08/12 13:31:49;;;;;;;1.60;1.20;;;26.90;38.60;;;;;;5970564;23;20366;-84
2022/08/12 13:34:29;;;;;;;2.47;1.20;;;26.90;38.60;;;;;;5925558;24;20414;-82
2022/08/12 13:37:41;;;;;;;1.93;1.00;;;26.90;38.60;;;;;;5970449;24;20445;-82
2022/08/12 13:40:47;;;;;;;1.53;1.20;;;26.90;38.60;;;;;;5970124;24;20387;-83
2022/08/12 13:43:48;;;;;;;;;;;;;;;;;;;;;
2022/08/12 13:46:56;;;;;;;;;;;;;;;;;;;;;
2022/08/12 13:59:55;;;;;;;2.17;1.00;;;26.90;38.60;;;;;;5886218;24;20389;-83
2022/08/12 14:03:06;;;;;;;1.10;1.00;;;26.90;38.60;;;;;;5864379;24;20403;-83
2022/08/12 14:06:38;;;;;;;;;;;;;;;;;;;;;
2022/08/12 14:09:31;;;;;;;;;;;;;;;;;;;;;
2022/08/12 14:12:28;;;;;;;;;;;;;;;;;;;;;
2022/08/12 14:19:28;;;;;;;1.17;0.97;;;26.90;38.60;;;;;;5860108;24;20535;-83
2022/08/12 14:22:28;;;;;;;1.40;1.07;;;26.90;38.60;;;;;;5837683;24;20393;-84
2022/08/12 14:26:16;;;;;;;;;;;;;;;;;;;;;
2022/08/12 14:32:19;;;;;;;1.30;1.20;;;26.90;38.60;;;;;;5891788;24;20511;-84
2022/08/12 14:44:38;;;;;;;1.40;1.23;;;26.90;38.50;;;;;;5786222;24;20427;-86
2022/08/12 14:54:34;;;;;;;1.40;1.20;;;26.90;38.50;;;;;;5785518;24;20492;-85
2022/08/12 15:03:30;;;;;;;1.30;1.10;;;26.90;38.50;;;;;;5812335;24;20448;-85
2022/08/12 15:13:31;;;;;;;2.83;1.10;;;26.90;38.40;;;;;;5971250;24;20454;-87
2022/08/12 15:16:30;;;;;;;1.37;1.20;;;26.90;38.40;;;;;;5947429;24;20416;-86
2022/08/12 15:25:59;;;;;;;1.20;1.10;;;26.90;38.60;;;;;;5891602;24;20649;-85
2022/08/12 15:28:47;;;;;;;1.80;1.10;;;26.90;38.50;;;;;;5892328;24;20456;-85
2022/08/12 15:31:53;;;;;;;1.77;1.40;;;26.90;38.50;;;;;;5868509;24;20377;-86
2022/08/12 15:47:23;;;;;;;1.70;1.40;;;26.90;38.40;;;;;;5861884;24;20385;-85
2022/08/12 15:50:08;;;;;;;1.50;1.40;;;26.90;38.40;;;;;;5861348;24;20393;-85
2022/08/12 15:53:06;;;;;;;1.33;1.20;;;26.90;38.50;;;;;;5839791;24;20390;-85
2022/08/12 16:02:23;;;;;;;;;;;;;;;;;;;;;
2022/08/12 16:05:03;;;;;;;1.57;1.37;;;27.00;38.40;;;;;;5747010;25;20406;-85
2022/08/12 16:14:14;;;;;;;1.20;1.00;;;27.00;38.40;;;;;;5835084;24;20422;-86
2022/08/12 16:16:50;;;;;;;1.37;1.20;;;26.90;38.30;;;;;;5839609;24;20397;-86
2022/08/12 16:19:33;;;;;;;1.50;1.40;;;27.00;38.40;;;;;;5897893;24;20390;-85
2022/08/12 16:22:45;;;;;;;1.20;1.10;;;27.00;38.40;;;;;;5898967;24;20411;-85
2022/08/12 16:25:19;;;;;;;1.30;1.20;;;27.00;38.40;;;;;;5917835;24;20379;-81
2022/08/12 16:28:15;;;;;;;1.67;1.30;;;27.00;38.40;;;;;;5917008;24;20385;-84
2022/08/12 16:30:51;;;;;;;1.37;1.27;;;27.00;38.40;;;;;;5939584;24;20379;-83
2022/08/12 16:34:09;;;;;;;;;;;;;;;;;;;;;
2022/08/12 16:43:29;;;;;;;1.30;1.20;;;27.00;38.40;;;;;;5995130;23;20387;-83
2022/08/12 16:46:28;;;;;;;1.73;1.40;;;26.90;38.40;;;;;;5972020;24;20397;-84
2022/08/12 16:49:10;;;;;;;1.83;1.30;;;27.00;38.50;;;;;;5972472;24;20393;-86
2022/08/12 17:05:28;;;;;;;;;;;;;;;;;;;;;
2022/08/12 17:15:26;;;;;;;1.50;1.40;;;27.00;38.50;;;;;;5945584;24;20359;-85
2022/08/12 17:22:29;;;;;;;;;;;;;;;;;;;;;
2022/08/12 17:28:33;;;;;;;;;;;;;;;;;;;;;
2022/08/12 17:31:04;;;;;;;1.60;1.50;;;26.90;38.60;;;;;;5890725;24;20472;-86
2022/08/12 17:33:34;;;;;;;2.43;1.70;;;26.90;38.60;;;;;;5892956;24;20376;-86
2022/08/12 17:36:20;;;;;;;1.80;1.50;;;26.90;38.60;;;;;;5885823;24;20445;-87
2022/08/12 17:55:13;;;;;;;1.60;1.30;;;26.90;38.50;;;;;;5983052;23;20436;-86
2022/08/12 18:01:27;;;;;;;1.40;1.30;;;26.90;38.50;;;;;;5998197;24;20361;-86
2022/08/12 18:04:14;;;;;;;1.90;1.30;;;26.90;38.50;;;;;;5974876;24;20679;-86
2022/08/12 18:07:26;;;;;;;;;;;;;;;;;;;;;
2022/08/12 18:10:07;;;;;;;1.63;1.53;;;26.90;38.50;;;;;;5998323;24;20702;-86
2022/08/12 18:20:06;;;;;;;2.17;1.50;;;26.90;38.50;;;;;;5915562;24;20440;-85
2022/08/12 18:23:04;;;;;;;1.83;1.70;;;27.00;38.60;;;;;;5985252;23;20408;-86
2022/08/12 18:26:25;;;;;;;1.53;1.43;;;26.90;38.60;;;;;;6002352;23;20428;-87
2022/08/12 18:53:26;;;;;;;;;;;;;;;;;;;;;
2022/08/12 19:03:25;;;;;;;;;;;;;;;;;;;;;
2022/08/12 19:06:16;;;;;;;1.93;1.83;;;26.90;38.60;;;;;;5915977;24;20403;-86
2022/08/12 19:19:11;;;;;;;;;;;;;;;;;;;;;
2022/08/12 19:22:13;;;;;;;1.50;1.40;;;26.90;38.50;;;;;;5835571;24;20420;-86
2022/08/12 19:32:20;;;;;;;;;;;;;;;;;;;;;
2022/08/12 19:39:16;;;;;;;1.40;1.30;;;26.90;38.60;;;;;;5809035;24;20435;-86
2022/08/12 19:45:54;;;;;;;1.70;1.60;;;26.90;38.60;;;;;;5863070;24;20357;-85
2022/08/12 19:49:10;;;;;;;;;;;;;;;;;;;;;
2022/08/12 19:55:14;;;;;;;1.63;1.53;;;26.90;38.60;;;;;;5829031;24;20737;-86
2022/08/12 19:58:17;;;;;;;;;;;;;;;;;;;;;
2022/08/12 20:18:23;;;;;;;2.30;1.87;;;26.90;38.70;;;;;;5972973;24;20432;-82
2022/08/12 20:21:23;;;;;;;1.87;1.23;;;26.90;38.80;;;;;;5943742;24;20411;-83
2022/08/12 20:31:10;;;;;;;2.20;2.00;;;26.90;38.70;;;;;;5888544;24;20365;-84
2022/08/12 20:33:43;;;;;;;2.10;1.90;;;26.90;38.80;;;;;;5887376;24;20381;-84
2022/08/12 20:36:27;;;;;;;;;;;;;;;;;;;;;
2022/08/12 20:42:36;;;;;;;2.03;1.50;;;26.90;38.80;;;;;;5886826;24;20380;-84
2022/08/12 20:45:51;;;;;;;2.43;1.80;;;26.90;38.80;;;;;;5887246;24;20396;-83
2022/08/12 20:49:06;;;;;;;1.63;1.53;;;26.90;38.70;;;;;;5839114;24;20398;-83
2022/08/12 21:07:37;;;;;;;1.50;1.40;;;26.90;38.80;;;;;;5862117;24;20400;-83
2022/08/12 21:10:37;;;;;;;;;;;;;;;;;;;;;
2022/08/12 21:13:50;;;;;;;1.67;1.57;;;26.90;38.80;;;;;;5861658;24;20421;-83
2022/08/12 21:16:42;;;;;;;;;;;;;;;;;;;;;
2022/08/12 21:20:19;;;;;;;1.20;1.10;;;26.90;38.80;;;;;;5915932;24;20458;-83
2022/08/12 21:23:04;;;;;;;1.93;1.40;;;26.90;38.80;;;;;;5915119;24;20516;-83
2022/08/12 21:25:55;;;;;;;1.50;1.40;;;26.90;38.80;;;;;;5892018;24;20387;-84
2022/08/12 21:28:29;;;;;;;1.60;1.50;;;26.90;38.80;;;;;;5915563;24;20388;-83
2022/08/12 21:31:21;;;;;;;1.60;1.40;;;26.90;38.90;;;;;;5946607;23;20404;-83
2022/08/12 21:34:29;;;;;;;1.43;1.33;;;26.90;38.80;;;;;;6053943;23;20368;-84
2022/08/12 21:37:37;;;;;;;;;;;;;;;;;;;;;
2022/08/12 21:43:54;;;;;;;3.53;1.50;;;26.90;38.80;;;;;;6022070;23;20348;-83
2022/08/12 21:46:37;;;;;;;1.57;1.47;;;26.90;38.90;;;;;;6021903;23;20795;-83
2022/08/12 21:49:18;;;;;;;1.60;1.50;;;26.90;38.90;;;;;;6022194;23;20810;-83
2022/08/12 21:58:39;;;;;;;;;;;;;;;;;;;;;
2022/08/12 22:08:13;;;;;;;1.60;1.50;;;26.90;38.90;;;;;;5967004;24;20381;-82
2022/08/12 22:11:36;;;;;;;1.80;1.70;;;26.90;38.90;;;;;;5967535;23;20391;-83
2022/08/12 22:14:20;;;;;;;3.60;1.50;;;26.90;39.00;;;;;;5994453;24;20477;-84
2022/08/12 22:16:56;;;;;;;1.70;1.60;;;26.90;39.00;;;;;;5994237;24;20444;-83
2022/08/12 22:26:51;;;;;;;2.77;1.80;;;26.90;39.00;;;;;;5996762;24;20386;-84
2022/08/12 22:35:57;;;;;;;1.70;1.53;;;26.80;39.00;;;;;;5997222;23;20565;-83
2022/08/12 22:38:50;;;;;;;1.93;1.50;;;26.80;39.00;;;;;;5996191;24;20452;-85
2022/08/12 22:48:24;;;;;;;1.90;1.70;;;26.80;39.00;;;;;;5972872;23;20447;-83
2022/08/12 22:51:20;;;;;;;1.90;1.50;;;26.80;39.00;;;;;;6054784;23;20414;-83
2022/08/12 22:54:22;;;;;;;2.23;1.80;;;26.80;39.00;;;;;;6160871;23;20392;-84
2022/08/12 23:00:32;;;;;;;1.60;1.50;;;26.80;39.00;;;;;;6143904;23;20488;-83
2022/08/12 23:03:28;;;;;;;1.90;1.80;;;26.80;39.10;;;;;;6143902;23;20381;-84
2022/08/12 23:09:08;;;;;;;1.50;1.37;;;26.80;39.10;;;;;;6112244;23;20396;-83
2022/08/12 23:12:01;;;;;;;1.70;1.60;;;26.80;39.10;;;;;;6143866;23;20361;-83
2022/08/12 23:14:34;;;;;;;1.60;1.50;;;26.80;39.10;;;;;;6124849;23;20377;-85
2022/08/12 23:17:10;;;;;;;2.00;1.83;;;26.80;39.10;;;;;;6141831;23;20377;-84
2022/08/12 23:19:45;;;;;;;1.83;1.73;;;26.90;39.20;;;;;;6135052;23;20383;-84
2022/08/12 23:22:27;;;;;;;1.90;1.77;;;26.90;39.10;;;;;;6139832;23;20376;-84
2022/08/12 23:25:14;;;;;;;1.73;1.63;;;26.90;39.20;;;;;;6140076;23;20437;-84
2022/08/12 23:30:30;;;;;;;1.93;1.70;;;26.90;39.20;;;;;;6141346;23;20361;-84
2022/08/12 23:36:12;;;;;;;2.40;1.90;;;26.90;39.20;;;;;;6023690;23;20444;-84
2022/08/12 23:38:52;;;;;;;1.70;1.60;;;26.90;39.20;;;;;;6001170;23;20463;-83
2022/08/12 23:44:41;;;;;;;2.43;1.97;;;26.90;39.20;;;;;;6024135;23;20372;-83
2022/08/12 23:50:25;;;;;;;1.63;1.53;;;26.80;39.20;;;;;;5991697;23;20382;-83
2022/08/12 23:52:54;;;;;;;1.70;1.60;;;26.80;39.20;;;;;;5999720;23;20388;-83
2022/08/12 23:55:25;;;;;;;1.73;1.63;;;26.80;39.20;;;;;;6000335;23;20436;-82
2022/08/12 23:58:01;;;;;;;1.70;1.50;;;26.90;39.20;;;;;;5999966;23;20431;-83
